Swartz Creek, MI (48473)

7:29 PM EDT on August 29, 2015 (GMT -0400)
Swartz Creek | | Change Station
CLOSE
Current Station
Personal Weather Station
Location: Swartz Creek, MI
Elevation: 807 ft
Nearby Weather Stations

Elev 807 ft 42.96 °N, 83.88 °W | Updated 3 minutes ago

Overcast
Overcast
66.2 °F
Feels Like 66.2 °F
N
1.0
Wind Variable Wind from NNE
Gusts 4.0 mph

Today
High -- | Low -- °F
--% Chance of Precip.
Yesterday
High -- | Low -- °F
Precip. -- in
6:56 AM 8:15 PM
Full, 100% visible
Pressure 30.08 in
Visibility 3.0 miles
Clouds Scattered Clouds 600 ft
Mostly Cloudy 1400 ft
Overcast 3600 ft
Dew Point 65 °F
Humidity 94%
Rainfall 0.04 in
Snow Depth Not available.
UV 0 out of 12
Pollen 8.60 out of 12
Air Quality Not available.
Flu Activity Not available.
SPECI KFNT 292307Z 36007KT 3SM -RA BR SCT006 BKN014 OVC036 21/19 A3008 RMK AO2 RAB2254 P0000 T02110189 $
Pressure 30.08 in
Visibility 3.0 miles
Clouds Scattered Clouds 600 ft
Mostly Cloudy 1400 ft
Overcast 3600 ft
Dew Point 65 °F
Humidity 94%
Rainfall 0.04 in
Snow Depth Not available.
UV 0 out of 12
Pollen 8.60 out of 12
Air Quality Not available.
Flu Activity Not available.
SPECI KFNT 292307Z 36007KT 3SM -RA BR SCT006 BKN014 OVC036 21/19 A3008 RMK AO2 RAB2254 P0000 T02110189 $

10-Day Weather Forecast

×

Almanac

Astronomy

Aug. 29, 2015 Rise Set
Actual Time
Civil Twilight
Nautical Twilight
Astronomical Twilight
Moon
Length of Visible Light
Length of Day
Tomorrow will be .
, % of the Moon is Illuminated

Today's Extremes

State Highs State Lows

Community

WunderPhotos

Upload Photos

1,850,783 photos uploaded!

WunderBlogs® & News

Nearby

Air Quality

  Air Quality AQ Index Pollutant
Not available.

Snow Depth

Station Depth Elevation

Earthquake Activity

City Distance Mag. Time & Date
Minimum magnitude displayed is 2.5.

Coastal Water Temperatures

Place Temperature

Stations

Nearby Weather Stations

Station Location Temp. Windchill Dew Point Humidity Wind Precip. Elev Updated Type